This is the latest recevied weather packets stored in our database for station/object DG3RAP-11. If no packets are shown the sender has not sent any weather packets the latest 10 day(s).
| Time | Temp. | Humidity | Pressure | Rain* | Wind** | Luminosity | Snow |
|---|---|---|---|---|---|---|---|
| 1777880703 | 18.33° C | 47% | 1014.9 hPa | 0 mm | - | - | - |
| 1777880163 | 18.89° C | 48% | 1015.1 hPa | 0 mm | - | - | - |
| 1777879623 | 17.22° C | 54% | 1014.9 hPa | 0 mm | - | - | - |
| 1777879083 | 17.22° C | 53% | 1015.2 hPa | 0 mm | - | - | - |
| 1777878544 | 17.22° C | 55% | 1014.7 hPa | 0 mm | - | - | - |
| 1777878003 | 16.67° C | 56% | 1014.9 hPa | 0 mm | - | - | - |
| 1777877643 | 16.11° C | 56% | 1014.8 hPa | 0 mm | - | - | - |
| 1777877103 | 16.11° C | 59% | 1014.9 hPa | 0 mm | - | - | - |
| 1777876563 | 15.56° C | 62% | 1014.8 hPa | 0 mm | - | - | - |
| 1777876023 | 15.56° C | 61% | 1014.6 hPa | 0 mm | - | - | - |
| 1777875483 | 15.56° C | 62% | 1014.4 hPa | 0 mm | - | - | - |
| 1777874943 | 15° C | 61% | 1014.5 hPa | 0 mm | - | - | - |
| 1777874403 | 15° C | 62% | 1014.5 hPa | 0 mm | - | - | - |
| 1777874043 | 15° C | 62% | 1014.4 hPa | 0 mm | - | - | - |
| 1777873503 | 14.44° C | 62% | 1014.6 hPa | 0 mm | - | - | - |
| 1777872963 | 14.44° C | 60% | 1014.4 hPa | 0 mm | - | - | - |
| 1777872423 | 14.44° C | 61% | 1014.2 hPa | 0 mm | - | - | - |
| 1777871883 | 14.44° C | 60% | 1014.3 hPa | 0 mm | - | - | - |
| 1777871343 | 14.44° C | 60% | 1014.4 hPa | 0 mm | - | - | - |
| 1777870803 | 14.44° C | 60% | 1014.3 hPa | 0 mm | - | - | - |
| 1777870443 | 14.44° C | 60% | 1014.3 hPa | 0 mm | - | - | - |
| 1777869903 | 14.44° C | 60% | 1014.4 hPa | 0 mm | - | - | - |
| 1777869363 | 14.44° C | 60% | 1014.5 hPa | 0 mm | - | - | - |
| 1777868823 | 14.44° C | 61% | 1014.5 hPa | 0 mm | - | - | - |
| 1777868283 | 14.44° C | 60% | 1014.5 hPa | 0 mm | - | - | - |
* Rain latest hour (hover to see other rain measurements)
** Current wind speed in m/s (hover to see current wind gust speed)